Time;durP1;ratioP1;P1;durP2;ratioP2;P2;SDS_P1;SDS_P2;PMS_P1;PMS_P2;Temp;Humidity;BMP_temperature;BMP_pressure;BME280_temperature;BME280_humidity;BME280_pressure;Samples;Min_cycle;Max_cycle;Signal;HPM_P1;HPM_P2
2021/08/20 00:02:05;;;;;;;4.10;3.63;;;18.20;99.90;;;;;;6273774;22;20175;-59
2021/08/20 00:04:31;;;;;;;3.63;3.33;;;18.10;99.90;;;;;;6273741;22;20159;-60
2021/08/20 00:06:57;;;;;;;3.27;2.97;;;18.00;99.90;;;;;;6273733;22;20742;-61
2021/08/20 00:09:22;;;;;;;3.73;3.17;;;18.10;99.90;;;;;;6272474;22;20649;-58
2021/08/20 00:11:48;;;;;;;3.40;3.20;;;17.90;99.90;;;;;;6273677;22;20154;-61
2021/08/20 00:14:15;;;;;;;3.90;3.03;;;18.00;99.90;;;;;;6273638;22;20150;-61
2021/08/20 00:16:42;;;;;;;3.50;3.20;;;18.10;99.90;;;;;;6273589;22;20202;-60
2021/08/20 00:19:07;;;;;;;3.47;3.17;;;18.00;99.90;;;;;;6272819;22;20181;-59
2021/08/20 00:21:34;;;;;;;3.40;3.10;;;18.00;99.90;;;;;;6273866;22;20150;-59
2021/08/20 00:24:00;;;;;;;4.30;3.30;;;18.00;99.90;;;;;;6273533;22;20229;-60
2021/08/20 00:26:25;;;;;;;3.60;3.30;;;17.90;99.90;;;;;;6273641;22;20536;-57
2021/08/20 00:28:51;;;;;;;4.60;3.07;;;17.90;99.90;;;;;;6272535;22;20170;-60
2021/08/20 00:31:17;;;;;;;4.90;3.23;;;17.90;99.90;;;;;;6273675;22;20169;-60
2021/08/20 00:33:42;;;;;;;3.90;3.50;;;18.00;99.90;;;;;;6272894;22;20154;-60
2021/08/20 00:36:08;;;;;;;3.43;3.10;;;17.90;99.90;;;;;;6273362;22;20206;-60
2021/08/20 00:38:38;;;;;;;3.83;3.23;;;17.90;99.90;;;;;;6272421;22;20142;-59
2021/08/20 00:41:10;;;;;;;4.00;3.53;;;17.90;99.90;;;;;;6273792;22;20150;-60
2021/08/20 00:43:36;;;;;;;4.20;3.80;;;18.00;99.90;;;;;;6273620;22;20152;-60
2021/08/20 00:46:02;;;;;;;3.40;3.10;;;18.00;99.90;;;;;;6273234;22;20160;-61
2021/08/20 00:48:28;;;;;;;3.67;3.37;;;18.00;99.90;;;;;;6272472;22;20182;-60
2021/08/20 00:51:20;;;;;;;5.00;3.53;;;18.00;99.90;;;;;;6273272;22;20150;-59
2021/08/20 00:53:47;;;;;;;3.83;3.53;;;17.90;99.90;;;;;;6273395;22;20144;-58
2021/08/20 00:56:12;;;;;;;3.67;3.37;;;17.80;99.90;;;;;;6273136;22;20173;-58
2021/08/20 00:58:39;;;;;;;3.40;3.10;;;17.90;99.90;;;;;;6272386;22;20246;-60
2021/08/20 01:01:05;;;;;;;3.63;3.33;;;17.80;99.90;;;;;;6273464;22;20233;-59
2021/08/20 01:03:32;;;;;;;3.10;2.90;;;17.80;99.90;;;;;;6273121;22;20146;-59
2021/08/20 01:05:59;;;;;;;3.10;2.90;;;17.80;99.90;;;;;;6273555;22;20160;-58
2021/08/20 01:08:26;;;;;;;3.70;3.37;;;17.80;99.90;;;;;;6272385;22;20154;-60
2021/08/20 01:10:54;;;;;;;3.63;3.17;;;17.80;99.90;;;;;;6272900;22;20158;-57
2021/08/20 01:13:20;;;;;;;3.23;2.90;;;17.90;99.90;;;;;;6273143;22;20150;-58
2021/08/20 01:15:46;;;;;;;3.47;3.17;;;17.90;99.90;;;;;;6272878;22;20234;-64
2021/08/20 01:18:27;;;;;;;3.30;3.10;;;17.80;99.90;;;;;;6273532;22;20624;-60
2021/08/20 01:20:54;;;;;;;4.33;3.50;;;17.90;99.90;;;;;;6273744;22;20130;-60
2021/08/20 01:23:23;;;;;;;3.33;3.07;;;17.90;99.90;;;;;;6273139;22;20536;-61
2021/08/20 01:25:49;;;;;;;3.70;3.40;;;17.90;99.90;;;;;;6272955;22;20156;-61
2021/08/20 01:28:14;;;;;;;3.60;3.30;;;17.90;99.90;;;;;;6273190;22;20239;-61
2021/08/20 01:30:41;;;;;;;3.37;3.13;;;17.90;99.90;;;;;;6272088;22;20169;-60
2021/08/20 01:33:07;;;;;;;3.97;3.57;;;17.90;99.90;;;;;;6273112;22;20161;-61
2021/08/20 01:35:35;;;;;;;3.40;3.10;;;17.80;99.90;;;;;;6272940;22;20150;-60
2021/08/20 01:38:01;;;;;;;4.80;3.20;;;17.90;99.90;;;;;;6273091;22;20592;-61
2021/08/20 01:40:28;;;;;;;4.00;3.23;;;17.90;99.90;;;;;;6272499;22;20201;-60
2021/08/20 01:42:54;;;;;;;3.77;3.47;;;17.80;99.90;;;;;;6273045;22;20597;-60
2021/08/20 01:45:20;;;;;;;3.70;3.40;;;17.80;99.90;;;;;;6274026;22;20234;-61
2021/08/20 01:47:46;;;;;;;4.13;3.30;;;17.80;99.90;;;;;;6275342;22;20146;-60
2021/08/20 01:50:12;;;;;;;3.60;3.30;;;17.80;99.90;;;;;;6274102;22;20169;-59
2021/08/20 01:52:38;;;;;;;3.37;3.17;;;17.80;99.90;;;;;;6275020;22;20142;-60
2021/08/20 01:55:06;;;;;;;3.47;3.03;;;17.70;99.90;;;;;;6275353;22;20173;-61
2021/08/20 01:57:33;;;;;;;3.30;3.00;;;17.80;99.90;;;;;;6274912;22;20284;-61
2021/08/20 01:59:59;;;;;;;3.30;3.10;;;17.80;99.90;;;;;;6274082;22;20778;-61
2021/08/20 02:02:24;;;;;;;3.77;3.07;;;17.80;99.90;;;;;;6274895;22;20147;-61
2021/08/20 02:04:50;;;;;;;3.77;3.40;;;17.80;99.90;;;;;;6274976;22;20157;-60
2021/08/20 02:07:16;;;;;;;3.53;3.23;;;17.80;99.90;;;;;;6274798;22;20177;-60
2021/08/20 02:09:41;;;;;;;3.60;3.30;;;17.80;99.90;;;;;;6273758;22;20186;-61
2021/08/20 02:12:07;;;;;;;3.97;3.23;;;17.80;99.90;;;;;;6274896;22;20161;-61
2021/08/20 02:14:32;;;;;;;3.83;3.00;;;17.90;99.90;;;;;;6274794;22;20272;-58
2021/08/20 02:16:58;;;;;;;3.27;3.07;;;17.90;99.90;;;;;;6274765;22;20617;-59
2021/08/20 02:19:23;;;;;;;3.30;3.00;;;17.90;99.90;;;;;;6273733;22;20168;-61
2021/08/20 02:21:49;;;;;;;3.17;2.97;;;17.80;99.90;;;;;;6276367;22;20169;-60
2021/08/20 02:24:14;;;;;;;3.63;3.30;;;17.80;99.90;;;;;;6274692;22;20142;-59
2021/08/20 02:26:40;;;;;;;5.27;3.30;;;17.80;99.90;;;;;;6274720;22;20157;-58
2021/08/20 02:29:05;;;;;;;3.33;3.00;;;17.70;99.90;;;;;;6273678;22;20219;-57
2021/08/20 02:31:31;;;;;;;4.03;3.43;;;17.80;99.90;;;;;;6274630;22;20155;-55
2021/08/20 02:33:57;;;;;;;3.50;3.30;;;17.80;99.90;;;;;;6274739;22;20186;-55
2021/08/20 02:36:23;;;;;;;3.60;3.20;;;17.70;99.90;;;;;;6274954;22;20174;-58
2021/08/20 02:38:49;;;;;;;3.77;3.47;;;17.80;99.90;;;;;;6274010;22;20204;-57
2021/08/20 02:41:15;;;;;;;3.13;2.90;;;17.80;99.90;;;;;;6274645;22;20631;-58
2021/08/20 02:43:41;;;;;;;3.70;3.40;;;17.80;99.90;;;;;;6274645;22;20177;-59
2021/08/20 02:46:07;;;;;;;4.53;3.20;;;17.80;99.90;;;;;;6274875;22;20537;-58
2021/08/20 02:48:32;;;;;;;3.53;3.23;;;17.80;99.90;;;;;;6273856;22;20181;-58
2021/08/20 02:50:58;;;;;;;3.60;3.30;;;17.80;99.90;;;;;;6275043;22;20604;-58
2021/08/20 02:53:24;;;;;;;3.00;2.80;;;17.70;99.90;;;;;;6275083;22;20157;-56
2021/08/20 02:55:49;;;;;;;3.93;3.00;;;17.80;99.90;;;;;;6274254;22;20559;-58
2021/08/20 02:58:15;;;;;;;5.90;3.70;;;17.70;99.90;;;;;;6274539;22;20147;-60
2021/08/20 03:00:40;;;;;;;5.00;3.10;;;17.80;99.90;;;;;;6274031;22;20178;-59
2021/08/20 03:03:06;;;;;;;3.27;3.07;;;17.60;99.90;;;;;;6274814;22;20142;-54
2021/08/20 03:05:32;;;;;;;3.77;3.47;;;17.70;99.90;;;;;;6274578;22;20484;-59
2021/08/20 03:07:57;;;;;;;3.30;3.00;;;17.70;99.90;;;;;;6274779;22;20532;-56
2021/08/20 03:10:23;;;;;;;3.70;3.40;;;17.70;99.90;;;;;;6273415;22;20182;-59
2021/08/20 03:12:48;;;;;;;3.80;3.50;;;17.60;99.90;;;;;;6274702;22;20176;-60
2021/08/20 03:15:14;;;;;;;4.33;3.93;;;17.50;99.90;;;;;;6273025;22;20185;-56
2021/08/20 03:17:40;;;;;;;3.60;3.30;;;17.60;99.90;;;;;;6274524;22;20170;-57
2021/08/20 03:20:07;;;;;;;3.67;3.33;;;17.60;99.90;;;;;;6273469;22;20249;-58
2021/08/20 03:22:32;;;;;;;3.83;3.43;;;17.60;99.90;;;;;;6274476;22;20195;-58
2021/08/20 03:24:58;;;;;;;3.77;3.47;;;17.60;99.90;;;;;;6274466;22;20228;-56
2021/08/20 03:27:24;;;;;;;4.07;3.70;;;17.50;99.90;;;;;;6274297;22;20229;-54
2021/08/20 03:29:49;;;;;;;3.87;3.47;;;17.50;99.90;;;;;;6273449;22;20278;-58
2021/08/20 03:32:15;;;;;;;3.77;3.47;;;17.60;99.90;;;;;;6274580;22;20164;-57
2021/08/20 03:34:40;;;;;;;4.37;3.37;;;17.60;99.90;;;;;;6274461;22;20150;-59
2021/08/20 03:37:06;;;;;;;3.50;3.20;;;17.60;99.90;;;;;;6274216;22;20200;-57
2021/08/20 03:39:32;;;;;;;3.87;3.57;;;17.50;99.90;;;;;;6273531;22;20166;-59
2021/08/20 03:41:57;;;;;;;3.83;3.53;;;17.50;99.90;;;;;;6274239;22;20149;-60
2021/08/20 03:44:23;;;;;;;3.63;3.33;;;17.50;99.90;;;;;;6274328;22;20153;-57
2021/08/20 03:46:48;;;;;;;4.37;3.60;;;17.60;99.90;;;;;;6274249;22;20150;-58
2021/08/20 03:49:14;;;;;;;3.80;3.50;;;17.60;99.90;;;;;;6273217;22;20209;-59
2021/08/20 03:51:39;;;;;;;7.60;3.43;;;17.60;99.90;;;;;;6273698;22;20161;-58
2021/08/20 03:54:05;;;;;;;4.07;3.67;;;17.50;99.90;;;;;;6274259;22;20220;-60
2021/08/20 03:56:30;;;;;;;3.97;3.67;;;17.40;99.90;;;;;;6273955;22;20535;-56
2021/08/20 03:58:58;;;;;;;5.00;4.60;;;17.50;99.90;;;;;;6273197;22;20223;-59
2021/08/20 04:01:24;;;;;;;6.00;5.30;;;17.50;99.90;;;;;;6273898;22;20157;-60
2021/08/20 04:03:49;;;;;;;5.23;4.80;;;17.50;99.90;;;;;;6273964;22;20150;-58
2021/08/20 04:06:15;;;;;;;5.20;4.70;;;17.50;99.90;;;;;;6273996;22;20174;-59
2021/08/20 04:11:18;;;;;;;5.33;4.17;;;17.50;99.90;;;;;;6274085;22;20182;-58
2021/08/20 04:13:43;;;;;;;4.30;3.93;;;17.40;99.90;;;;;;6274063;22;20168;-57
2021/08/20 04:16:09;;;;;;;3.90;3.40;;;17.50;99.90;;;;;;6273979;22;20264;-57
2021/08/20 04:18:35;;;;;;;3.77;3.47;;;17.40;99.90;;;;;;6273117;22;20150;-59
2021/08/20 04:21:01;;;;;;;5.33;3.67;;;17.40;99.90;;;;;;6273604;22;20243;-60
2021/08/20 04:23:26;;;;;;;4.40;4.03;;;17.50;99.90;;;;;;6273440;22;20512;-55
2021/08/20 04:25:52;;;;;;;4.87;4.37;;;17.40;99.90;;;;;;6273569;22;20157;-59
2021/08/20 04:28:17;;;;;;;4.13;3.77;;;17.70;99.90;;;;;;6273463;22;20147;-57
2021/08/20 04:30:43;;;;;;;5.70;4.17;;;17.50;99.90;;;;;;6272926;22;20166;-56
2021/08/20 04:33:08;;;;;;;5.47;4.03;;;17.70;99.90;;;;;;6273518;22;20481;-58
2021/08/20 04:35:34;;;;;;;4.17;3.77;;;17.70;99.90;;;;;;6273404;22;20165;-57
2021/08/20 04:38:00;;;;;;;3.90;3.60;;;17.70;99.90;;;;;;6246365;22;20154;-59
2021/08/20 04:40:25;;;;;;;4.93;3.70;;;17.70;99.90;;;;;;6272438;22;20608;-56
2021/08/20 04:42:51;;;;;;;3.37;3.17;;;17.70;99.90;;;;;;6273670;22;20149;-57
2021/08/20 04:45:17;;;;;;;3.20;3.00;;;17.70;99.90;;;;;;6271371;22;20150;-58
2021/08/20 04:47:43;;;;;;;3.83;3.53;;;17.60;99.90;;;;;;6272163;22;20154;-55
2021/08/20 04:50:10;;;;;;;4.37;3.30;;;17.60;99.90;;;;;;6273713;22;20178;-59
2021/08/20 04:52:36;;;;;;;3.40;3.17;;;17.60;99.90;;;;;;6272147;22;20497;-58
2021/08/20 04:55:02;;;;;;;3.30;3.07;;;17.50;99.90;;;;;;6273666;22;20150;-60
2021/08/20 04:57:27;;;;;;;3.87;2.70;;;17.60;99.90;;;;;;6273907;22;20173;-58
2021/08/20 04:59:53;;;;;;;3.17;2.97;;;17.60;99.90;;;;;;6271431;22;20643;-59
2021/08/20 05:02:19;;;;;;;4.57;2.90;;;17.70;99.90;;;;;;6273534;22;20152;-55
2021/08/20 05:04:45;;;;;;;3.43;2.90;;;17.70;99.90;;;;;;6269776;22;20146;-58
2021/08/20 05:07:11;;;;;;;4.50;2.90;;;17.70;99.90;;;;;;6273645;22;20155;-60
2021/08/20 05:09:36;;;;;;;3.97;3.10;;;17.70;99.90;;;;;;6272643;22;20208;-60
2021/08/20 05:12:03;;;;;;;3.47;3.17;;;17.90;99.90;;;;;;6273328;22;20716;-59
2021/08/20 05:14:30;;;;;;;3.27;2.93;;;17.90;99.90;;;;;;6272103;22;20616;-56
2021/08/20 05:16:55;;;;;;;3.30;3.00;;;17.80;99.90;;;;;;6272742;22;20166;-59
2021/08/20 05:19:21;;;;;;;3.30;3.10;;;17.80;99.90;;;;;;6272465;22;20167;-58
2021/08/20 05:21:47;;;;;;;3.20;2.83;;;17.80;99.90;;;;;;6273596;22;20160;-58
2021/08/20 05:24:12;;;;;;;5.63;3.07;;;17.90;99.90;;;;;;6273663;22;20244;-59
2021/08/20 05:26:38;;;;;;;3.90;2.90;;;17.90;99.90;;;;;;6273846;22;20151;-60
2021/08/20 05:29:03;;;;;;;4.27;3.10;;;18.00;99.90;;;;;;6273336;22;20176;-60
2021/08/20 05:31:29;;;;;;;3.30;3.00;;;18.10;99.90;;;;;;6273544;22;20602;-59
2021/08/20 05:33:55;;;;;;;4.40;3.20;;;18.10;99.90;;;;;;6273513;22;20153;-59
2021/08/20 05:36:20;;;;;;;3.93;3.47;;;18.10;99.90;;;;;;6272211;22;20237;-60
2021/08/20 05:38:46;;;;;;;3.50;3.20;;;18.10;99.90;;;;;;6271833;22;20190;-60
2021/08/20 05:41:11;;;;;;;5.17;3.47;;;17.90;99.90;;;;;;6273425;22;20483;-59
2021/08/20 05:43:37;;;;;;;3.57;3.00;;;18.10;99.90;;;;;;6273558;22;20175;-60
2021/08/20 05:46:03;;;;;;;3.93;3.40;;;18.10;99.90;;;;;;6273397;22;20152;-59
2021/08/20 05:48:28;;;;;;;6.73;3.27;;;18.30;99.90;;;;;;6273430;22;20187;-58
2021/08/20 05:50:54;;;;;;;3.40;3.10;;;18.30;99.90;;;;;;6273464;22;20173;-60
2021/08/20 05:53:19;;;;;;;5.00;3.47;;;18.40;99.90;;;;;;6273736;22;20153;-58
2021/08/20 05:55:45;;;;;;;3.13;2.90;;;18.50;99.90;;;;;;6273477;22;20207;-57
2021/08/20 05:58:10;;;;;;;4.07;2.90;;;18.60;99.90;;;;;;6273535;22;20203;-59
2021/08/20 06:00:36;;;;;;;3.07;2.77;;;18.60;99.90;;;;;;6272729;22;20618;-57
2021/08/20 06:03:02;;;;;;;3.20;2.90;;;18.60;99.90;;;;;;6273177;22;20156;-58
2021/08/20 06:05:27;;;;;;;3.07;2.77;;;18.50;99.90;;;;;;6273404;22;20149;-55
2021/08/20 06:07:53;;;;;;;3.00;2.80;;;18.60;99.90;;;;;;6246021;22;20167;-55
2021/08/20 06:10:19;;;;;;;2.90;2.50;;;18.70;99.90;;;;;;6272759;22;20516;-60
2021/08/20 06:12:45;;;;;;;2.97;2.67;;;18.80;99.90;;;;;;6273201;22;20169;-57
2021/08/20 06:15:12;;;;;;;2.70;2.50;;;18.90;99.90;;;;;;6273282;22;20146;-53
2021/08/20 06:17:38;;;;;;;2.53;2.37;;;19.00;99.90;;;;;;6273416;22;20260;-60
2021/08/20 06:20:05;;;;;;;3.23;2.70;;;19.10;99.90;;;;;;6272745;22;20182;-57
2021/08/20 06:22:31;;;;;;;3.27;2.63;;;19.20;99.90;;;;;;6273655;22;20229;-58
2021/08/20 06:24:57;;;;;;;2.40;2.20;;;19.20;99.90;;;;;;6273132;22;20143;-58
2021/08/20 06:27:22;;;;;;;4.53;2.70;;;19.40;99.90;;;;;;6273200;22;20154;-60
2021/08/20 06:29:48;;;;;;;4.27;2.70;;;19.50;99.90;;;;;;6272597;22;20166;-57
2021/08/20 06:32:13;;;;;;;3.33;3.03;;;19.60;99.90;;;;;;6274074;22;20748;-61
2021/08/20 06:34:39;;;;;;;2.93;2.60;;;19.70;99.90;;;;;;6274860;22;20176;-60
2021/08/20 06:37:05;;;;;;;5.00;2.60;;;19.80;99.90;;;;;;6274957;22;20404;-60
2021/08/20 06:39:31;;;;;;;3.30;3.00;;;20.00;99.90;;;;;;6274758;22;20165;-60
2021/08/20 06:41:56;;;;;;;3.00;2.70;;;20.10;99.90;;;;;;6275178;22;20142;-58
2021/08/20 06:44:22;;;;;;;2.77;2.57;;;19.80;99.90;;;;;;6275345;22;20161;-59
2021/08/20 06:46:48;;;;;;;2.27;2.07;;;19.80;99.90;;;;;;6274983;22;20150;-58
2021/08/20 06:49:13;;;;;;;3.03;2.83;;;19.90;99.90;;;;;;6274987;22;20174;-57
2021/08/20 06:51:39;;;;;;;3.83;2.73;;;19.90;99.90;;;;;;6274792;22;20146;-60
2021/08/20 06:54:05;;;;;;;2.80;2.60;;;20.10;99.90;;;;;;6274897;22;20486;-55
2021/08/20 06:56:30;;;;;;;2.93;2.67;;;20.20;99.90;;;;;;6274994;22;20181;-60
2021/08/20 06:58:59;;;;;;;2.70;2.50;;;20.20;99.90;;;;;;6274288;22;20149;-58
2021/08/20 07:01:25;;;;;;;2.70;2.50;;;20.20;99.90;;;;;;6274510;22;20154;-57
2021/08/20 07:03:51;;;;;;;3.40;2.97;;;20.40;99.90;;;;;;6274979;22;20155;-60
2021/08/20 07:06:21;;;;;;;3.10;2.90;;;20.30;99.90;;;;;;6274247;22;20239;-60
2021/08/20 07:08:51;;;;;;;2.83;2.63;;;20.10;99.90;;;;;;6274302;22;20642;-60
2021/08/20 07:11:17;;;;;;;2.50;2.30;;;20.30;99.90;;;;;;6274334;22;20169;-60
2021/08/20 07:13:43;;;;;;;2.90;2.70;;;20.50;99.90;;;;;;6274617;22;20169;-61
2021/08/20 07:16:08;;;;;;;2.80;2.60;;;20.80;99.90;;;;;;6274415;22;20178;-60
2021/08/20 07:18:35;;;;;;;3.70;3.40;;;20.80;99.90;;;;;;6274060;22;20736;-58
2021/08/20 07:21:01;;;;;;;2.70;2.50;;;21.00;99.90;;;;;;6274612;22;20170;-59
2021/08/20 07:23:27;;;;;;;3.73;3.30;;;21.10;99.90;;;;;;6272579;22;20174;-58
2021/08/20 07:25:52;;;;;;;4.03;3.40;;;21.20;99.90;;;;;;6272436;22;20259;-60
2021/08/20 07:28:18;;;;;;;3.40;3.10;;;21.20;99.90;;;;;;6272176;22;20592;-60
2021/08/20 07:30:43;;;;;;;4.32;3.20;;;21.20;99.90;;;;;;6271877;22;20239;-59
2021/08/20 07:33:09;;;;;;;3.53;3.23;;;21.10;99.90;;;;;;6272218;22;20597;-60
2021/08/20 07:35:35;;;;;;;3.63;3.33;;;21.10;99.90;;;;;;6272287;22;20614;-60
2021/08/20 07:38:00;;;;;;;3.73;3.10;;;21.00;99.90;;;;;;6246963;22;20150;-61
2021/08/20 07:40:26;;;;;;;3.10;2.80;;;21.20;99.90;;;;;;6274235;22;20167;-60
2021/08/20 07:42:51;;;;;;;3.95;3.60;;;21.50;99.90;;;;;;6274299;22;20151;-60
2021/08/20 07:45:17;;;;;;;3.50;3.20;;;21.40;99.90;;;;;;6274924;22;20177;-60
2021/08/20 07:47:44;;;;;;;3.53;3.25;;;21.30;99.90;;;;;;6274764;22;20162;-60
2021/08/20 07:50:10;;;;;;;5.03;3.95;;;21.50;99.90;;;;;;6274184;22;20173;-60
2021/08/20 07:52:35;;;;;;;4.13;3.72;;;21.70;99.90;;;;;;6274632;22;20153;-61
2021/08/20 07:55:01;;;;;;;3.22;3.00;;;21.80;99.90;;;;;;6274446;22;20148;-61
2021/08/20 07:57:26;;;;;;;4.70;3.92;;;22.00;99.90;;;;;;6274761;22;20172;-60
2021/08/20 07:59:52;;;;;;;3.55;3.25;;;21.90;99.90;;;;;;6274887;22;20252;-58
2021/08/20 08:02:17;;;;;;;4.40;3.92;;;22.10;99.90;;;;;;6274914;22;20153;-59
2021/08/20 08:04:43;;;;;;;4.20;3.90;;;22.20;99.90;;;;;;6247143;22;20193;-55
2021/08/20 08:07:08;;;;;;;4.10;3.42;;;22.30;99.90;;;;;;6274781;22;20623;-60
2021/08/20 08:09:34;;;;;;;3.97;3.50;;;22.40;99.90;;;;;;6273911;22;20196;-58
2021/08/20 08:11:59;;;;;;;3.50;3.20;;;22.60;99.90;;;;;;6274814;22;20203;-61
2021/08/20 08:14:25;;;;;;;3.60;3.30;;;22.70;99.90;;;;;;6274649;22;20146;-60
2021/08/20 08:16:51;;;;;;;3.25;2.95;;;22.80;99.90;;;;;;6274461;22;20166;-57
2021/08/20 08:19:16;;;;;;;3.92;3.15;;;22.90;99.90;;;;;;6273437;22;20170;-60
2021/08/20 08:21:44;;;;;;;4.70;3.53;;;22.80;99.90;;;;;;6274384;22;20157;-58
2021/08/20 08:24:10;;;;;;;3.60;3.30;;;22.80;99.90;;;;;;6274439;22;20154;-60
2021/08/20 08:26:35;;;;;;;3.33;3.03;;;22.60;99.90;;;;;;6273860;22;20639;-56
2021/08/20 08:29:01;;;;;;;2.95;2.75;;;22.80;99.90;;;;;;6273639;22;20485;-59
2021/08/20 08:31:26;;;;;;;4.22;3.15;;;22.80;99.90;;;;;;6274100;22;20154;-58
2021/08/20 08:33:52;;;;;;;3.50;3.20;;;23.00;99.90;;;;;;6274154;22;20245;-60
2021/08/20 08:36:18;;;;;;;4.13;2.80;;;23.10;99.90;;;;;;6273851;22;20625;-60
2021/08/20 08:38:44;;;;;;;3.28;3.03;;;23.30;99.90;;;;;;6273870;22;20146;-60
2021/08/20 08:41:10;;;;;;;3.45;3.15;;;23.30;99.90;;;;;;6273917;22;20146;-55
2021/08/20 08:43:36;;;;;;;4.32;2.75;;;23.10;99.90;;;;;;6274008;22;20733;-57
2021/08/20 08:46:04;;;;;;;3.20;2.90;;;23.00;99.90;;;;;;6273922;22;20176;-60
2021/08/20 08:48:35;;;;;;;3.35;3.05;;;23.00;99.90;;;;;;6273977;22;20154;-60
2021/08/20 08:51:00;;;;;;;3.35;3.05;;;23.30;99.90;;;;;;6274015;22;20708;-60
2021/08/20 08:53:26;;;;;;;3.38;2.70;;;23.50;99.90;;;;;;6273895;22;20146;-60
2021/08/20 08:55:53;;;;;;;3.03;2.80;;;23.60;99.90;;;;;;6273659;22;20186;-58
2021/08/20 08:58:18;;;;;;;3.97;3.58;;;23.80;99.90;;;;;;6273972;22;20154;-60
2021/08/20 09:00:44;;;;;;;3.28;3.08;;;23.90;99.90;;;;;;6273741;22;20544;-57
2021/08/20 09:03:27;;;;;;;3.30;3.10;;;23.80;99.90;;;;;;6273618;22;20195;-60
2021/08/20 09:05:54;;;;;;;3.40;3.10;;;23.80;99.90;;;;;;6274095;22;20199;-58
2021/08/20 09:08:21;;;;;;;3.40;2.80;;;23.80;99.90;;;;;;6273509;22;20153;-55
2021/08/20 09:10:57;;;;;;;5.95;2.85;;;23.60;99.90;;;;;;6273061;22;20193;-58
2021/08/20 09:13:24;;;;;;;2.85;2.63;;;23.30;99.90;;;;;;6273571;22;20211;-60
2021/08/20 09:16:09;;;;;;;2.45;2.30;;;23.40;99.90;;;;;;6273637;22;20186;-58
2021/08/20 09:18:36;;;;;;;2.78;2.58;;;23.80;99.90;;;;;;6273517;22;20150;-59
2021/08/20 09:21:03;;;;;;;3.60;2.85;;;23.60;99.90;;;;;;6273861;22;20181;-59
2021/08/20 09:23:28;;;;;;;3.03;2.78;;;23.60;99.90;;;;;;6273492;22;20153;-59
2021/08/20 09:25:55;;;;;;;3.20;2.90;;;23.50;99.90;;;;;;6273689;22;20145;-51
2021/08/20 09:28:25;;;;;;;3.40;3.10;;;23.60;99.90;;;;;;6273463;22;20146;-58
2021/08/20 09:30:54;;;;;;;3.30;2.85;;;23.70;99.90;;;;;;6273524;22;20192;-58
2021/08/20 09:33:22;;;;;;;2.40;2.20;;;23.80;99.90;;;;;;6273702;22;20207;-57
2021/08/20 09:35:59;;;;;;;2.53;2.33;;;24.00;99.90;;;;;;6273546;22;20153;-60
2021/08/20 09:38:25;;;;;;;2.50;2.30;;;24.20;99.90;;;;;;6273170;22;20146;-56
2021/08/20 09:40:54;;;;;;;2.95;2.22;;;24.40;99.90;;;;;;6273823;22;20559;-59
2021/08/20 09:43:27;;;;;;;3.47;2.60;;;24.50;99.90;;;;;;6273720;22;20150;-59
2021/08/20 09:46:12;;;;;;;2.90;2.63;;;24.50;99.90;;;;;;6273578;22;20153;-59
2021/08/20 09:48:42;;;;;;;2.10;2.00;;;24.60;99.90;;;;;;6273088;22;20141;-58
2021/08/20 09:51:09;;;;;;;2.95;2.70;;;24.90;99.90;;;;;;6273364;22;20192;-57
2021/08/20 09:53:35;;;;;;;4.45;2.78;;;25.10;99.90;;;;;;6273495;22;20142;-57
2021/08/20 09:56:05;;;;;;;2.75;2.55;;;25.10;99.90;;;;;;6273643;22;20174;-59
2021/08/20 09:58:32;;;;;;;3.17;2.85;;;25.00;99.90;;;;;;6273127;22;20149;-58
2021/08/20 10:01:01;;;;;;;2.70;2.50;;;24.80;99.90;;;;;;6273515;22;20193;-60
2021/08/20 10:03:28;;;;;;;3.90;2.30;;;25.20;99.90;;;;;;6273388;22;20234;-60
2021/08/20 10:05:55;;;;;;;2.47;2.28;;;25.40;99.90;;;;;;6273882;22;20153;-59
2021/08/20 10:08:21;;;;;;;2.80;2.60;;;25.80;99.90;;;;;;6275297;22;20146;-59
2021/08/20 10:10:49;;;;;;;3.30;2.30;;;26.00;99.90;;;;;;6276255;22;20244;-59
2021/08/20 10:13:16;;;;;;;3.28;2.97;;;26.30;99.90;;;;;;6275310;22;20172;-57
2021/08/20 10:15:43;;;;;;;3.13;2.90;;;26.50;99.90;;;;;;6275403;22;20185;-59
2021/08/20 10:18:12;;;;;;;3.38;2.88;;;26.10;99.90;;;;;;6275282;22;20147;-59
2021/08/20 10:20:39;;;;;;;2.35;2.15;;;26.20;99.90;;;;;;6247696;22;20228;-59
2021/08/20 10:23:05;;;;;;;2.65;2.38;;;26.80;99.90;;;;;;6275282;22;20173;-60
2021/08/20 10:25:32;;;;;;;2.33;2.13;;;27.60;99.90;;;;;;6275399;22;20146;-59
2021/08/20 10:27:58;;;;;;;2.75;2.53;;;28.00;99.90;;;;;;6275179;22;20154;-60
2021/08/20 10:30:24;;;;;;;3.05;2.42;;;28.40;99.90;;;;;;6274742;22;20180;-57
2021/08/20 10:33:05;;;;;;;2.50;2.30;;;28.10;99.90;;;;;;6274929;22;20153;-57
2021/08/20 10:35:51;;;;;;;3.42;2.00;;;27.70;99.90;;;;;;6275263;22;20149;-59
2021/08/20 10:38:26;;;;;;;3.10;2.25;;;27.80;99.90;;;;;;6275076;22;20153;-54
2021/08/20 10:41:18;;;;;;;3.15;2.60;;;27.90;99.90;;;;;;6274965;22;20393;-56
2021/08/20 10:43:47;;;;;;;2.22;2.03;;;27.90;99.90;;;;;;6275179;22;20135;-59
2021/08/20 10:46:31;;;;;;;1.90;1.80;;;27.70;99.90;;;;;;6274843;22;20156;-60
2021/08/20 10:49:21;;;;;;;1.70;1.60;;;27.70;99.90;;;;;;6274944;22;20212;-58
2021/08/20 10:51:50;;;;;;;2.05;1.92;;;27.80;99.90;;;;;;6274836;22;20184;-61
2021/08/20 10:54:16;;;;;;;2.25;1.88;;;27.90;99.90;;;;;;6274988;22;20151;-60
2021/08/20 10:56:42;;;;;;;1.80;1.70;;;27.90;99.90;;;;;;6274728;22;20177;-59
2021/08/20 10:59:07;;;;;;;1.58;1.48;;;27.70;99.90;;;;;;6274467;22;20166;-60
2021/08/20 11:01:33;;;;;;;2.00;1.70;;;27.60;99.90;;;;;;6274879;22;20153;-59
2021/08/20 11:03:59;;;;;;;2.10;1.83;;;27.50;99.90;;;;;;6275107;22;20150;-61
2021/08/20 11:06:55;;;;;;;2.03;1.90;;;27.40;99.90;;;;;;6274916;22;20154;-60
2021/08/20 11:09:28;;;;;;;1.70;1.60;;;27.40;99.90;;;;;;6263743;22;20211;-59
2021/08/20 11:11:54;;;;;;;2.05;1.90;;;27.60;99.90;;;;;;6274734;22;20146;-60
2021/08/20 11:14:24;;;;;;;2.30;1.92;;;27.60;99.90;;;;;;6274821;22;20158;-58
2021/08/20 11:16:49;;;;;;;2.33;2.00;;;27.40;99.90;;;;;;6274359;22;20177;-58
2021/08/20 11:19:47;;;;;;;1.70;1.60;;;27.10;99.90;;;;;;6274278;22;20166;-60
2021/08/20 11:22:21;;;;;;;1.60;1.50;;;27.10;99.90;;;;;;6274535;22;20266;-60
2021/08/20 11:25:10;;;;;;;1.85;1.75;;;27.30;99.90;;;;;;6274352;22;20156;-60
2021/08/20 11:27:35;;;;;;;2.35;1.50;;;27.80;99.90;;;;;;6274562;22;20204;-60
2021/08/20 11:30:03;;;;;;;2.28;2.05;;;28.20;99.90;;;;;;6273969;22;20178;-61
2021/08/20 11:32:29;;;;;;;1.80;1.70;;;28.30;99.90;;;;;;6274585;22;20142;-56
2021/08/20 11:34:54;;;;;;;2.10;1.90;;;28.80;99.90;;;;;;6274771;22;20160;-58
2021/08/20 11:37:20;;;;;;;1.73;1.63;;;29.20;99.90;;;;;;6274372;22;20172;-59
2021/08/20 11:40:07;;;;;;;1.70;1.60;;;29.20;99.90;;;;;;6274057;22;20166;-61
2021/08/20 11:42:35;;;;;;;1.52;1.42;;;29.60;99.90;;;;;;6273371;22;20208;-59
2021/08/20 11:45:21;;;;;;;2.08;1.98;;;29.90;99.90;;;;;;6273693;22;20488;-59
2021/08/20 11:47:46;;;;;;;2.38;2.17;;;29.50;99.90;;;;;;6274432;22;20635;-59
2021/08/20 11:50:13;;;;;;;2.33;2.10;;;28.30;99.90;;;;;;6273969;22;20174;-56
2021/08/20 11:52:46;;;;;;;2.28;2.08;;;27.60;99.90;;;;;;6274449;22;20643;-58
2021/08/20 11:55:18;;;;;;;1.98;1.83;;;27.10;99.90;;;;;;6274580;22;20157;-59
2021/08/20 11:57:45;;;;;;;2.13;1.83;;;26.90;99.90;;;;;;6274495;22;20169;-59
2021/08/20 12:00:12;;;;;;;2.25;1.90;;;27.00;99.90;;;;;;6273914;22;20280;-59
2021/08/20 12:02:38;;;;;;;1.83;1.73;;;27.30;99.90;;;;;;6275000;22;20485;-58
2021/08/20 12:05:18;;;;;;;1.65;1.55;;;27.60;99.90;;;;;;6274915;22;20150;-60
2021/08/20 12:07:44;;;;;;;2.25;1.67;;;27.60;99.90;;;;;;6275048;22;20169;-60
2021/08/20 12:10:12;;;;;;;3.22;1.88;;;27.20;99.90;;;;;;6273969;22;20280;-59
2021/08/20 12:12:41;;;;;;;1.48;1.38;;;26.70;99.90;;;;;;6274774;22;20203;-57
2021/08/20 12:15:08;;;;;;;1.70;1.60;;;26.70;99.90;;;;;;6274827;22;20474;-58
2021/08/20 12:17:34;;;;;;;1.92;1.60;;;26.70;99.90;;;;;;6274337;22;20227;-58
2021/08/20 12:20:16;;;;;;;1.80;1.55;;;26.70;99.90;;;;;;6274377;22;20249;-57
2021/08/20 12:22:48;;;;;;;1.70;1.60;;;26.20;99.90;;;;;;6274316;22;20473;-59
2021/08/20 12:25:16;;;;;;;1.40;1.30;;;26.10;99.90;;;;;;6274383;22;20600;-61
2021/08/20 12:27:42;;;;;;;2.05;1.95;;;26.20;99.90;;;;;;6274126;22;20156;-60
2021/08/20 12:30:10;;;;;;;1.90;1.70;;;26.40;99.90;;;;;;6273737;22;20864;-60
2021/08/20 12:32:38;;;;;;;1.80;1.70;;;26.30;99.90;;;;;;6273997;22;20149;-58
2021/08/20 12:35:12;;;;;;;1.58;1.48;;;26.50;99.90;;;;;;6274378;22;20244;-58
2021/08/20 12:37:38;;;;;;;2.33;1.60;;;26.90;99.90;;;;;;6273986;22;20254;-60
2021/08/20 12:40:08;;;;;;;1.77;1.67;;;27.20;99.90;;;;;;6273885;22;20205;-56
2021/08/20 12:42:42;;;;;;;1.90;1.70;;;27.00;99.90;;;;;;6274032;22;20169;-58
2021/08/20 12:45:18;;;;;;;1.52;1.20;;;27.40;99.90;;;;;;6274240;22;20138;-58
2021/08/20 12:48:06;;;;;;;1.20;1.13;;;27.60;99.90;;;;;;6274274;22;20514;-59
2021/08/20 12:50:34;;;;;;;1.20;1.10;;;27.60;99.90;;;;;;6273964;22;20169;-59
2021/08/20 12:53:05;;;;;;;2.50;1.40;;;27.30;99.50;;;;;;6273744;22;20221;-57